Time;durP1;ratioP1;P1;durP2;ratioP2;P2;SDS_P1;SDS_P2;PMS_P1;PMS_P2;Temp;Humidity;BMP_temperature;BMP_pressure;BME280_temperature;BME280_humidity;BME280_pressure;Samples;Min_cycle;Max_cycle;Signal;HPM_P1;HPM_P2
2023/12/24 00:02:19;;;;;;;0.60;0.60;;;;;;;;;;5048021;28;20306;-71
2023/12/24 00:04:49;;;;;;;2.17;0.40;;;;;;;;;;5047863;28;20369;-72
2023/12/24 00:07:15;;;;;;;0.40;0.40;;;;;;;;;;5047979;28;20299;-71
2023/12/24 00:09:41;;;;;;;0.90;0.30;;;;;;;;;;5048048;28;20221;-72
2023/12/24 00:12:08;;;;;;;0.30;0.30;;;;;;;;;;5048186;28;20208;-72
2023/12/24 00:14:34;;;;;;;0.30;0.30;;;;;;;;;;5047734;28;20212;-71
2023/12/24 00:17:00;;;;;;;0.40;0.40;;;;;;;;;;5048219;28;20201;-71
2023/12/24 00:19:28;;;;;;;0.20;0.20;;;;;;;;;;5048250;28;20215;-71
2023/12/24 00:21:54;;;;;;;0.60;0.32;;;;;;;;;;5040298;28;20205;-71
2023/12/24 00:24:19;;;;;;;0.30;0.30;;;;;;;;;;5048205;28;20209;-71
2023/12/24 00:26:46;;;;;;;0.30;0.30;;;;;;;;;;5049369;28;20278;-71
2023/12/24 00:29:12;;;;;;;0.20;0.20;;;;;;;;;;5050431;28;20217;-70
2023/12/24 00:31:39;;;;;;;0.30;0.30;;;;;;;;;;5048571;28;20205;-70
2023/12/24 00:34:05;;;;;;;0.70;0.40;;;;;;;;;;5048136;28;20220;-71
2023/12/24 00:36:32;;;;;;;0.32;0.30;;;;;;;;;;5047989;28;20233;-71
2023/12/24 00:38:59;;;;;;;0.40;0.40;;;;;;;;;;5048165;28;20258;-71
2023/12/24 00:41:25;;;;;;;0.30;0.30;;;;;;;;;;5047995;28;20213;-71
2023/12/24 00:43:51;;;;;;;0.93;0.43;;;;;;;;;;5048244;28;20215;-72
2023/12/24 00:46:18;;;;;;;0.40;0.40;;;;;;;;;;5047940;28;20232;-70
2023/12/24 00:48:44;;;;;;;0.30;0.30;;;;;;;;;;5047438;28;20291;-71
2023/12/24 00:51:11;;;;;;;1.10;0.30;;;;;;;;;;5047944;28;20532;-69
2023/12/24 00:53:38;;;;;;;0.30;0.30;;;;;;;;;;5045933;28;20984;-69
2023/12/24 00:56:05;;;;;;;1.38;0.50;;;;;;;;;;5045631;28;20290;-69
2023/12/24 00:58:31;;;;;;;0.30;0.30;;;;;;;;;;5045737;28;20209;-69
2023/12/24 01:00:58;;;;;;;0.30;0.30;;;;;;;;;;5037634;28;20213;-69
2023/12/24 01:03:24;;;;;;;0.30;0.30;;;;;;;;;;5045518;28;20635;-71
2023/12/24 01:05:50;;;;;;;0.40;0.40;;;;;;;;;;5045787;28;20679;-71
2023/12/24 01:08:16;;;;;;;0.17;0.13;;;;;;;;;;5046547;28;20282;-69
2023/12/24 01:10:44;;;;;;;0.65;0.30;;;;;;;;;;5047155;28;20205;-71
2023/12/24 01:13:10;;;;;;;1.00;0.40;;;;;;;;;;5047044;28;20608;-69
2023/12/24 01:15:36;;;;;;;0.70;0.30;;;;;;;;;;5046802;28;20235;-69
2023/12/24 01:18:03;;;;;;;0.32;0.32;;;;;;;;;;5047126;28;20209;-69
2023/12/24 01:20:29;;;;;;;1.70;0.60;;;;;;;;;;5047133;28;20213;-69
2023/12/24 01:22:56;;;;;;;0.43;0.43;;;;;;;;;;5047075;28;20698;-69
2023/12/24 01:25:22;;;;;;;0.20;0.20;;;;;;;;;;5046857;28;20465;-70
2023/12/24 01:27:52;;;;;;;0.22;0.20;;;;;;;;;;5047031;28;20708;-71
2023/12/24 01:30:18;;;;;;;2.42;0.30;;;;;;;;;;5046748;28;20213;-70
2023/12/24 01:32:45;;;;;;;0.20;0.20;;;;;;;;;;5046946;28;20213;-70
2023/12/24 01:35:11;;;;;;;0.85;0.50;;;;;;;;;;5046573;28;20228;-70
2023/12/24 01:37:37;;;;;;;0.50;0.50;;;;;;;;;;5046814;28;20275;-70
2023/12/24 01:40:04;;;;;;;0.60;0.50;;;;;;;;;;5046456;28;20201;-70
2023/12/24 01:42:30;;;;;;;0.30;0.30;;;;;;;;;;5046980;28;20262;-70
2023/12/24 01:44:57;;;;;;;0.40;0.30;;;;;;;;;;5046717;28;20301;-70
2023/12/24 01:47:24;;;;;;;0.30;0.30;;;;;;;;;;5046669;28;20258;-70
2023/12/24 01:49:50;;;;;;;2.10;0.60;;;;;;;;;;5046526;28;20225;-70
2023/12/24 01:52:17;;;;;;;0.38;0.38;;;;;;;;;;5046541;28;20263;-70
2023/12/24 01:54:45;;;;;;;0.40;0.40;;;;;;;;;;5045991;28;20209;-70
2023/12/24 01:57:11;;;;;;;0.32;0.32;;;;;;;;;;5046610;28;20220;-70
2023/12/24 01:59:38;;;;;;;0.38;0.38;;;;;;;;;;5046486;28;20224;-70
2023/12/24 02:02:06;;;;;;;0.40;0.30;;;;;;;;;;5046089;28;20262;-70
2023/12/24 02:04:33;;;;;;;0.50;0.30;;;;;;;;;;5046126;28;20636;-70
2023/12/24 02:06:59;;;;;;;0.38;0.38;;;;;;;;;;5046208;28;20224;-70
2023/12/24 02:09:26;;;;;;;0.20;0.20;;;;;;;;;;5046186;28;20221;-70
2023/12/24 02:11:52;;;;;;;0.30;0.30;;;;;;;;;;5046126;28;20775;-70
2023/12/24 02:14:18;;;;;;;0.40;0.40;;;;;;;;;;5046010;28;21002;-70
2023/12/24 02:16:47;;;;;;;0.60;0.60;;;;;;;;;;5046117;28;20229;-70
2023/12/24 02:19:17;;;;;;;1.10;0.40;;;;;;;;;;5045979;28;20209;-69
2023/12/24 02:21:44;;;;;;;1.02;0.50;;;;;;;;;;5046168;28;20215;-69
2023/12/24 02:24:11;;;;;;;1.38;0.50;;;;;;;;;;5046055;28;20629;-69
2023/12/24 02:26:40;;;;;;;0.50;0.50;;;;;;;;;;5046112;28;20229;-69
2023/12/24 02:29:09;;;;;;;0.93;0.40;;;;;;;;;;5038058;28;20220;-69
2023/12/24 02:31:37;;;;;;;0.50;0.50;;;;;;;;;;5046350;28;20213;-69
2023/12/24 02:34:04;;;;;;;1.60;0.60;;;;;;;;;;5047331;28;20208;-69
2023/12/24 02:36:31;;;;;;;0.45;0.45;;;;;;;;;;5048617;28;20225;-69
2023/12/24 02:38:59;;;;;;;0.60;0.60;;;;;;;;;;5045607;28;20688;-71
2023/12/24 02:41:25;;;;;;;0.47;0.47;;;;;;;;;;5045156;28;20213;-70
2023/12/24 02:43:51;;;;;;;0.65;0.52;;;;;;;;;;5044577;28;20205;-70
2023/12/24 02:46:17;;;;;;;0.35;0.35;;;;;;;;;;5045181;28;20233;-70
2023/12/24 02:48:44;;;;;;;0.40;0.40;;;;;;;;;;5044724;28;20228;-70
2023/12/24 02:51:10;;;;;;;0.70;0.70;;;;;;;;;;5044970;28;20669;-70
2023/12/24 02:53:36;;;;;;;0.50;0.50;;;;;;;;;;5044740;28;20601;-70
2023/12/24 02:56:04;;;;;;;1.30;0.47;;;;;;;;;;5044679;28;20236;-71
2023/12/24 02:58:30;;;;;;;0.40;0.40;;;;;;;;;;5045076;28;20212;-71
2023/12/24 03:00:56;;;;;;;0.57;0.57;;;;;;;;;;5044820;28;20282;-71
2023/12/24 03:03:23;;;;;;;1.00;0.70;;;;;;;;;;5044689;28;20209;-71
2023/12/24 03:05:49;;;;;;;0.68;0.50;;;;;;;;;;5044610;28;21004;-71
2023/12/24 03:08:15;;;;;;;0.50;0.50;;;;;;;;;;5048378;28;20648;-71
2023/12/24 03:10:41;;;;;;;0.60;0.60;;;;;;;;;;5048096;28;20274;-71
2023/12/24 03:13:09;;;;;;;0.98;0.50;;;;;;;;;;5047914;28;20209;-71
2023/12/24 03:15:35;;;;;;;0.40;0.40;;;;;;;;;;5048115;28;20259;-71
2023/12/24 03:18:02;;;;;;;0.60;0.60;;;;;;;;;;5047692;28;20209;-71
2023/12/24 03:20:28;;;;;;;1.02;0.45;;;;;;;;;;5047978;28;20216;-71
2023/12/24 03:22:54;;;;;;;0.40;0.40;;;;;;;;;;5047964;28;20205;-71
2023/12/24 03:25:20;;;;;;;0.30;0.30;;;;;;;;;;5047783;28;20728;-71
2023/12/24 03:27:47;;;;;;;0.50;0.50;;;;;;;;;;5048036;28;20584;-71
2023/12/24 03:30:14;;;;;;;0.43;0.43;;;;;;;;;;5047750;28;20397;-71
2023/12/24 03:32:41;;;;;;;0.40;0.40;;;;;;;;;;5048003;28;20208;-71
2023/12/24 03:35:07;;;;;;;0.55;0.30;;;;;;;;;;5047076;28;20240;-71
2023/12/24 03:37:33;;;;;;;0.68;0.60;;;;;;;;;;5047991;28;20216;-71
2023/12/24 03:40:00;;;;;;;2.43;1.03;;;;;;;;;;5011585;28;1034326;-71
2023/12/24 03:42:26;;;;;;;0.50;0.50;;;;;;;;;;5049166;28;20267;-71
2023/12/24 03:44:52;;;;;;;0.32;0.32;;;;;;;;;;5048742;28;20236;-71
2023/12/24 03:47:20;;;;;;;0.70;0.50;;;;;;;;;;5049069;28;20259;-71
2023/12/24 03:49:46;;;;;;;1.20;0.60;;;;;;;;;;5048884;28;20314;-71
2023/12/24 03:52:12;;;;;;;2.13;0.50;;;;;;;;;;5048719;28;20205;-71
2023/12/24 03:54:38;;;;;;;1.45;0.30;;;;;;;;;;5048823;28;20224;-71
2023/12/24 03:57:05;;;;;;;0.50;0.50;;;;;;;;;;5048971;28;20209;-71
2023/12/24 03:59:31;;;;;;;1.00;0.60;;;;;;;;;;5048580;28;20276;-71
2023/12/24 04:01:57;;;;;;;0.55;0.40;;;;;;;;;;5048958;28;20205;-71
2023/12/24 04:04:25;;;;;;;0.40;0.40;;;;;;;;;;5048904;28;20303;-71
2023/12/24 04:06:51;;;;;;;0.40;0.32;;;;;;;;;;5048602;28;20229;-71
2023/12/24 04:09:18;;;;;;;0.68;0.50;;;;;;;;;;5048254;28;20724;-71
2023/12/24 04:11:44;;;;;;;0.57;0.40;;;;;;;;;;5048396;28;20209;-71
2023/12/24 04:14:10;;;;;;;0.90;0.60;;;;;;;;;;5047962;28;20217;-71
2023/12/24 04:16:36;;;;;;;0.57;0.57;;;;;;;;;;5048328;28;20259;-71
2023/12/24 04:19:03;;;;;;;0.45;0.45;;;;;;;;;;5048044;28;20209;-71
2023/12/24 04:21:32;;;;;;;0.57;0.40;;;;;;;;;;5048338;28;20271;-71
2023/12/24 04:23:59;;;;;;;0.45;0.45;;;;;;;;;;5047879;28;20255;-71
2023/12/24 04:26:25;;;;;;;0.55;0.40;;;;;;;;;;5048075;28;20228;-71
2023/12/24 04:28:52;;;;;;;0.50;0.50;;;;;;;;;;5047912;28;20208;-71
2023/12/24 04:31:18;;;;;;;0.45;0.45;;;;;;;;;;5048220;28;20466;-71
2023/12/24 04:33:44;;;;;;;0.40;0.40;;;;;;;;;;5048077;28;20320;-71
2023/12/24 04:36:17;;;;;;;0.60;0.60;;;;;;;;;;5047988;28;20225;-71
2023/12/24 04:38:44;;;;;;;1.27;0.43;;;;;;;;;;5047921;28;20220;-71
2023/12/24 04:41:15;;;;;;;0.50;0.50;;;;;;;;;;5047418;28;20743;-71
2023/12/24 04:43:41;;;;;;;0.57;0.50;;;;;;;;;;5049358;28;20216;-71
2023/12/24 04:46:07;;;;;;;0.40;0.40;;;;;;;;;;5049276;28;20236;-71
2023/12/24 04:48:33;;;;;;;0.50;0.50;;;;;;;;;;5048005;28;20213;-71
2023/12/24 04:51:00;;;;;;;0.40;0.40;;;;;;;;;;5047556;28;20221;-71
2023/12/24 04:53:26;;;;;;;0.40;0.40;;;;;;;;;;5047562;28;20213;-71
2023/12/24 04:55:54;;;;;;;0.40;0.40;;;;;;;;;;5047381;28;20229;-70
2023/12/24 04:58:20;;;;;;;0.47;0.47;;;;;;;;;;5039603;28;20255;-71
2023/12/24 05:00:46;;;;;;;0.57;0.57;;;;;;;;;;5047475;28;20292;-71
2023/12/24 05:03:13;;;;;;;0.40;0.40;;;;;;;;;;5047456;28;20208;-71
2023/12/24 05:05:39;;;;;;;0.50;0.50;;;;;;;;;;5047503;28;20676;-71
2023/12/24 05:08:05;;;;;;;0.77;0.40;;;;;;;;;;5047498;28;20694;-71
2023/12/24 05:10:32;;;;;;;0.63;0.52;;;;;;;;;;5046835;28;20224;-71
2023/12/24 05:12:59;;;;;;;0.50;0.50;;;;;;;;;;5047228;28;20212;-71
2023/12/24 05:15:26;;;;;;;0.40;0.40;;;;;;;;;;5047115;28;20244;-71
2023/12/24 05:17:52;;;;;;;0.50;0.38;;;;;;;;;;5047424;28;20201;-71
2023/12/24 05:20:18;;;;;;;0.40;0.40;;;;;;;;;;5047175;28;20869;-71
2023/12/24 05:22:45;;;;;;;0.40;0.40;;;;;;;;;;5047138;28;20563;-71
2023/12/24 05:25:11;;;;;;;0.57;0.50;;;;;;;;;;5046565;28;20257;-71
2023/12/24 05:27:38;;;;;;;0.30;0.30;;;;;;;;;;5047184;28;20205;-71
2023/12/24 05:30:06;;;;;;;0.47;0.40;;;;;;;;;;5046024;28;20221;-71
2023/12/24 05:32:33;;;;;;;0.32;0.32;;;;;;;;;;5047161;28;20266;-71
2023/12/24 05:34:59;;;;;;;1.35;0.40;;;;;;;;;;5046792;28;20258;-71
2023/12/24 05:37:25;;;;;;;0.50;0.50;;;;;;;;;;5046804;28;20255;-71
2023/12/24 05:39:51;;;;;;;0.30;0.30;;;;;;;;;;5046711;28;20761;-71
2023/12/24 05:42:18;;;;;;;0.55;0.30;;;;;;;;;;5046524;28;20278;-71
2023/12/24 05:44:44;;;;;;;0.68;0.68;;;;;;;;;;5046636;28;20215;-71
2023/12/24 05:47:11;;;;;;;0.40;0.40;;;;;;;;;;5046575;28;20282;-71
2023/12/24 05:49:38;;;;;;;0.80;0.50;;;;;;;;;;5046704;28;20282;-71
2023/12/24 05:52:04;;;;;;;1.45;0.50;;;;;;;;;;5046425;28;20573;-71
2023/12/24 05:54:30;;;;;;;0.57;0.50;;;;;;;;;;5046299;28;20710;-71
2023/12/24 05:56:57;;;;;;;0.40;0.40;;;;;;;;;;5046394;28;20279;-71
2023/12/24 05:59:23;;;;;;;0.40;0.40;;;;;;;;;;5046056;28;20673;-71
2023/12/24 06:01:49;;;;;;;0.50;0.50;;;;;;;;;;5046321;28;20399;-71
2023/12/24 06:04:17;;;;;;;0.30;0.30;;;;;;;;;;5046119;28;20209;-71
2023/12/24 06:06:43;;;;;;;0.40;0.40;;;;;;;;;;5046180;28;20274;-71
2023/12/24 06:09:09;;;;;;;0.47;0.47;;;;;;;;;;5046105;28;20213;-71
2023/12/24 06:11:36;;;;;;;0.73;0.40;;;;;;;;;;5046123;28;20635;-71
2023/12/24 06:14:02;;;;;;;0.40;0.40;;;;;;;;;;5045905;28;20209;-71
2023/12/24 06:16:29;;;;;;;0.40;0.40;;;;;;;;;;5045756;28;20786;-71
2023/12/24 06:18:55;;;;;;;0.40;0.40;;;;;;;;;;5046473;28;20205;-71
2023/12/24 06:21:22;;;;;;;0.30;0.30;;;;;;;;;;5045811;28;20212;-71
2023/12/24 06:23:50;;;;;;;0.38;0.38;;;;;;;;;;5046022;28;20651;-71
2023/12/24 06:26:16;;;;;;;0.40;0.40;;;;;;;;;;5045823;28;20251;-71
2023/12/24 06:28:43;;;;;;;0.35;0.35;;;;;;;;;;5046136;28;20255;-71
2023/12/24 06:31:09;;;;;;;1.33;1.23;;;;;;;;;;5045892;28;20643;-71
2023/12/24 06:33:36;;;;;;;1.00;0.47;;;;;;;;;;5045936;28;20605;-71
2023/12/24 06:36:02;;;;;;;0.47;0.47;;;;;;;;;;5045979;28;20224;-71
2023/12/24 06:38:29;;;;;;;0.60;0.60;;;;;;;;;;5045923;28;20212;-71
2023/12/24 06:40:56;;;;;;;0.40;0.40;;;;;;;;;;5045563;28;20263;-71
2023/12/24 06:43:22;;;;;;;4.15;0.68;;;;;;;;;;5045658;28;20205;-71
2023/12/24 06:45:48;;;;;;;0.73;0.73;;;;;;;;;;5045605;28;20278;-71
2023/12/24 06:48:15;;;;;;;0.52;0.52;;;;;;;;;;5045767;28;20294;-71
2023/12/24 06:50:41;;;;;;;2.20;0.50;;;;;;;;;;5045766;28;20221;-71
2023/12/24 06:53:07;;;;;;;0.40;0.40;;;;;;;;;;5047377;28;20208;-71
2023/12/24 06:55:35;;;;;;;0.95;0.50;;;;;;;;;;5045804;28;20279;-68
2023/12/24 06:58:02;;;;;;;0.40;0.40;;;;;;;;;;5045523;28;20693;-68
2023/12/24 07:00:28;;;;;;;0.52;0.52;;;;;;;;;;5045531;28;20581;-68
2023/12/24 07:02:55;;;;;;;0.40;0.40;;;;;;;;;;5045711;28;20255;-68
2023/12/24 07:05:21;;;;;;;2.28;0.40;;;;;;;;;;5045239;28;20232;-68
2023/12/24 07:07:47;;;;;;;2.40;0.60;;;;;;;;;;5045551;28;20228;-68
2023/12/24 07:10:13;;;;;;;0.50;0.50;;;;;;;;;;5045316;28;20225;-68
2023/12/24 07:12:41;;;;;;;0.40;0.40;;;;;;;;;;5045491;28;20263;-68
2023/12/24 07:15:08;;;;;;;0.50;0.50;;;;;;;;;;5045151;28;20220;-68
2023/12/24 07:17:34;;;;;;;0.60;0.60;;;;;;;;;;5045528;28;20251;-68
2023/12/24 07:20:00;;;;;;;0.40;0.40;;;;;;;;;;5045364;28;20628;-68
2023/12/24 07:22:27;;;;;;;0.55;0.40;;;;;;;;;;5045056;28;20310;-68
2023/12/24 07:24:53;;;;;;;0.45;0.45;;;;;;;;;;5045230;28;20426;-68
2023/12/24 07:27:21;;;;;;;0.40;0.40;;;;;;;;;;5045398;28;20637;-68
2023/12/24 07:29:48;;;;;;;0.60;0.60;;;;;;;;;;5045229;28;20209;-68
2023/12/24 07:32:15;;;;;;;1.30;1.00;;;;;;;;;;5045346;28;20628;-68
2023/12/24 07:34:41;;;;;;;42.35;17.83;;;;;;;;;;5045203;28;20205;-68
2023/12/24 07:37:07;;;;;;;2.88;2.50;;;;;;;;;;5045311;28;20267;-68
2023/12/24 07:39:34;;;;;;;14.02;6.30;;;;;;;;;;5044994;28;20205;-68
2023/12/24 07:42:00;;;;;;;0.65;0.57;;;;;;;;;;5045200;28;20209;-68
2023/12/24 07:44:27;;;;;;;1.90;1.75;;;;;;;;;;5044852;28;20213;-68
2023/12/24 07:46:54;;;;;;;4.85;3.17;;;;;;;;;;5045447;28;20232;-68
2023/12/24 07:49:20;;;;;;;2.83;0.55;;;;;;;;;;5045371;28;20514;-68
2023/12/24 07:51:47;;;;;;;1.77;0.40;;;;;;;;;;5045079;28;20239;-68
2023/12/24 07:54:13;;;;;;;0.40;0.40;;;;;;;;;;5048210;28;20205;-68
2023/12/24 07:56:40;;;;;;;0.40;0.40;;;;;;;;;;5048746;28;20221;-68
2023/12/24 07:59:06;;;;;;;0.40;0.40;;;;;;;;;;5048786;28;20209;-68
2023/12/24 08:01:32;;;;;;;1.30;1.20;;;;;;;;;;5048580;28;20201;-68
2023/12/24 08:04:00;;;;;;;0.30;0.30;;;;;;;;;;5048682;28;20271;-68
2023/12/24 08:06:26;;;;;;;0.30;0.30;;;;;;;;;;5048448;28;20228;-68
2023/12/24 08:08:52;;;;;;;0.32;0.32;;;;;;;;;;5048542;28;20255;-68
2023/12/24 08:11:18;;;;;;;0.30;0.30;;;;;;;;;;5048095;28;20231;-68
2023/12/24 08:13:45;;;;;;;0.20;0.20;;;;;;;;;;5048196;28;20531;-68
2023/12/24 08:16:11;;;;;;;0.52;0.40;;;;;;;;;;5048396;28;20240;-68
2023/12/24 08:18:38;;;;;;;0.30;0.30;;;;;;;;;;5040290;28;20208;-68
2023/12/24 08:21:09;;;;;;;0.28;0.28;;;;;;;;;;5048349;28;20561;-68
2023/12/24 08:23:36;;;;;;;0.20;0.20;;;;;;;;;;5048062;28;20581;-68
2023/12/24 08:26:02;;;;;;;1.27;0.20;;;;;;;;;;5047857;28;20225;-68
2023/12/24 08:28:28;;;;;;;0.60;0.20;;;;;;;;;;5047940;28;20213;-68
2023/12/24 08:30:54;;;;;;;0.20;0.20;;;;;;;;;;5047995;28;20221;-68
2023/12/24 08:33:21;;;;;;;0.20;0.20;;;;;;;;;;5047960;28;20209;-68
2023/12/24 08:35:47;;;;;;;0.30;0.30;;;;;;;;;;5048086;28;20607;-68
2023/12/24 08:38:15;;;;;;;0.30;0.30;;;;;;;;;;5048132;28;20202;-68
2023/12/24 08:40:41;;;;;;;0.20;0.20;;;;;;;;;;5039739;28;20209;-68
2023/12/24 08:43:08;;;;;;;0.20;0.20;;;;;;;;;;5047679;28;20278;-68
2023/12/24 08:45:34;;;;;;;0.85;0.20;;;;;;;;;;5047516;28;20221;-68
2023/12/24 08:48:00;;;;;;;0.30;0.30;;;;;;;;;;5047860;28;20282;-68
2023/12/24 08:50:26;;;;;;;0.50;0.50;;;;;;;;;;5047564;28;20205;-68
2023/12/24 08:52:52;;;;;;;0.55;0.50;;;;;;;;;;5047803;28;20209;-68
2023/12/24 08:55:20;;;;;;;0.30;0.30;;;;;;;;;;5047213;28;20229;-68
2023/12/24 08:57:47;;;;;;;0.30;0.30;;;;;;;;;;5047343;28;20670;-68
2023/12/24 09:00:14;;;;;;;0.20;0.20;;;;;;;;;;5046961;28;20401;-68
2023/12/24 09:02:40;;;;;;;0.30;0.30;;;;;;;;;;5047902;28;20251;-68
2023/12/24 09:05:07;;;;;;;0.40;0.40;;;;;;;;;;5046346;28;20271;-68
2023/12/24 09:07:33;;;;;;;0.30;0.30;;;;;;;;;;5049065;28;20440;-67
2023/12/24 09:10:00;;;;;;;1.35;1.25;;;;;;;;;;5052998;28;20197;-67
2023/12/24 09:12:27;;;;;;;0.60;0.60;;;;;;;;;;5053153;28;20225;-67
2023/12/24 09:14:53;;;;;;;1.08;0.95;;;;;;;;;;5053119;28;20225;-67
2023/12/24 09:17:20;;;;;;;1.00;0.80;;;;;;;;;;5052885;28;20579;-67
2023/12/24 09:19:46;;;;;;;0.35;0.35;;;;;;;;;;5052911;28;20197;-67
2023/12/24 09:22:12;;;;;;;0.50;0.50;;;;;;;;;;5053070;28;20270;-67
2023/12/24 09:24:38;;;;;;;3.60;3.25;;;;;;;;;;5052810;28;20201;-67
2023/12/24 09:27:05;;;;;;;2.63;2.42;;;;;;;;;;5052893;28;20200;-67
2023/12/24 09:29:32;;;;;;;0.20;0.20;;;;;;;;;;5052641;28;20322;-67
2023/12/24 09:31:59;;;;;;;0.28;0.20;;;;;;;;;;5052721;28;20299;-66
2023/12/24 09:34:25;;;;;;;0.22;0.20;;;;;;;;;;5052316;28;20209;-66
2023/12/24 09:36:51;;;;;;;0.30;0.30;;;;;;;;;;5047420;28;20233;-66
2023/12/24 09:39:17;;;;;;;0.40;0.30;;;;;;;;;;5048096;28;20213;-67
2023/12/24 09:41:44;;;;;;;0.20;0.20;;;;;;;;;;5046730;28;20296;-68
2023/12/24 09:44:10;;;;;;;0.30;0.30;;;;;;;;;;5046698;28;20213;-68
2023/12/24 09:46:37;;;;;;;1.10;0.60;;;;;;;;;;5046616;28;20290;-68
2023/12/24 09:49:04;;;;;;;0.40;0.40;;;;;;;;;;5046581;28;20212;-67
2023/12/24 09:51:32;;;;;;;0.30;0.30;;;;;;;;;;5046332;28;20217;-67
2023/12/24 09:53:58;;;;;;;0.85;0.40;;;;;;;;;;5046535;28;20900;-66
2023/12/24 09:56:24;;;;;;;0.50;0.30;;;;;;;;;;5046961;28;20236;-66
2023/12/24 09:58:50;;;;;;;0.40;0.40;;;;;;;;;;5046814;28;20213;-66
2023/12/24 10:01:17;;;;;;;0.35;0.35;;;;;;;;;;5046428;28;20258;-66
2023/12/24 10:03:44;;;;;;;0.30;0.30;;;;;;;;;;5046176;28;20209;-66
2023/12/24 10:06:10;;;;;;;0.30;0.30;;;;;;;;;;5045960;28;20279;-67
2023/12/24 10:08:38;;;;;;;0.40;0.40;;;;;;;;;;5046402;28;20213;-67
2023/12/24 10:11:12;;;;;;;0.30;0.30;;;;;;;;;;5046184;28;20311;-67
2023/12/24 10:13:38;;;;;;;0.30;0.30;;;;;;;;;;5046580;28;20555;-68
2023/12/24 10:16:05;;;;;;;0.40;0.40;;;;;;;;;;5046379;28;20225;-68
2023/12/24 10:18:32;;;;;;;0.30;0.30;;;;;;;;;;5046626;28;20296;-69
2023/12/24 10:21:05;;;;;;;0.50;0.50;;;;;;;;;;5046689;28;20197;-69
2023/12/24 10:23:31;;;;;;;0.40;0.40;;;;;;;;;;5046439;28;20217;-69
2023/12/24 10:26:01;;;;;;;0.88;0.40;;;;;;;;;;5046373;28;20806;-69
2023/12/24 10:28:27;;;;;;;0.50;0.50;;;;;;;;;;5046418;28;20205;-68
2023/12/24 10:31:04;;;;;;;0.30;0.30;;;;;;;;;;5046206;28;20233;-68
2023/12/24 10:33:30;;;;;;;0.28;0.28;;;;;;;;;;5046227;28;20219;-68
2023/12/24 10:35:57;;;;;;;0.30;0.30;;;;;;;;;;5046411;28;20551;-68
2023/12/24 10:38:27;;;;;;;0.68;0.52;;;;;;;;;;5046162;28;20691;-69
2023/12/24 10:40:53;;;;;;;0.30;0.30;;;;;;;;;;5038370;28;20620;-69
2023/12/24 10:43:19;;;;;;;0.50;0.30;;;;;;;;;;5046192;28;20209;-67
2023/12/24 10:45:46;;;;;;;0.20;0.20;;;;;;;;;;5045563;28;20236;-67
2023/12/24 10:48:12;;;;;;;0.22;0.22;;;;;;;;;;5045588;28;20315;-67
2023/12/24 10:50:39;;;;;;;0.30;0.30;;;;;;;;;;5045689;28;20216;-68
2023/12/24 10:53:05;;;;;;;0.20;0.20;;;;;;;;;;5045910;28;20705;-66
2023/12/24 10:55:34;;;;;;;0.25;0.25;;;;;;;;;;5045469;28;20224;-66
2023/12/24 10:58:05;;;;;;;0.38;0.38;;;;;;;;;;5045801;28;20205;-69
2023/12/24 11:00:31;;;;;;;0.30;0.30;;;;;;;;;;5045469;28;20205;-69
2023/12/24 11:02:57;;;;;;;0.30;0.30;;;;;;;;;;5045701;28;20231;-69
2023/12/24 11:05:44;;;;;;;0.30;0.30;;;;;;;;;;5045773;28;20283;-69
2023/12/24 11:08:28;;;;;;;0.40;0.40;;;;;;;;;;5039866;28;20209;-69
2023/12/24 11:10:55;;;;;;;0.50;0.40;;;;;;;;;;5038506;28;20205;-69
2023/12/24 11:13:41;;;;;;;0.20;0.20;;;;;;;;;;5048467;28;20562;-69
2023/12/24 11:16:09;;;;;;;0.20;0.20;;;;;;;;;;5039477;28;20243;-68
2023/12/24 11:18:42;;;;;;;0.30;0.30;;;;;;;;;;5045654;28;20708;-68
2023/12/24 11:21:10;;;;;;;1.00;0.93;;;;;;;;;;5045478;28;20205;-65
2023/12/24 11:23:36;;;;;;;0.77;0.35;;;;;;;;;;5044851;28;20315;-65
2023/12/24 11:26:24;;;;;;;0.65;0.30;;;;;;;;;;5045452;28;20252;-66
2023/12/24 11:28:50;;;;;;;0.30;0.30;;;;;;;;;;5048207;28;20220;-67
2023/12/24 11:31:22;;;;;;;0.30;0.30;;;;;;;;;;5049086;28;20209;-67
2023/12/24 11:33:48;;;;;;;0.30;0.30;;;;;;;;;;5048974;28;20209;-67
2023/12/24 11:36:15;;;;;;;0.47;0.35;;;;;;;;;;5049267;28;20225;-67
2023/12/24 11:38:42;;;;;;;0.30;0.30;;;;;;;;;;5048876;28;20997;-66
2023/12/24 11:41:10;;;;;;;0.30;0.30;;;;;;;;;;5048623;28;20213;-66
2023/12/24 11:43:37;;;;;;;0.30;0.30;;;;;;;;;;5048915;28;20739;-66
2023/12/24 11:46:03;;;;;;;0.25;0.25;;;;;;;;;;5048876;28;20252;-66
2023/12/24 11:48:31;;;;;;;0.20;0.20;;;;;;;;;;5048934;28;20220;-66
2023/12/24 11:51:04;;;;;;;0.75;0.20;;;;;;;;;;5040801;28;20240;-66
2023/12/24 11:53:32;;;;;;;0.35;0.20;;;;;;;;;;5048431;28;20221;-66
2023/12/24 11:56:05;;;;;;;0.20;0.20;;;;;;;;;;5040962;28;20308;-66
2023/12/24 11:58:33;;;;;;;0.40;0.13;;;;;;;;;;5049047;28;20272;-66
2023/12/24 12:01:02;;;;;;;0.30;0.30;;;;;;;;;;5040356;28;20201;-66
2023/12/24 12:03:28;;;;;;;0.20;0.20;;;;;;;;;;5048119;28;20284;-66
2023/12/24 12:05:54;;;;;;;0.32;0.20;;;;;;;;;;5048393;28;20221;-66
2023/12/24 12:08:21;;;;;;;0.10;0.10;;;;;;;;;;5048624;28;20216;-67
2023/12/24 12:10:47;;;;;;;0.15;0.15;;;;;;;;;;5048249;28;20286;-66
2023/12/24 12:13:13;;;;;;;0.85;0.30;;;;;;;;;;5048451;28;20221;-66
2023/12/24 12:15:41;;;;;;;0.20;0.20;;;;;;;;;;5048330;28;20298;-66
2023/12/24 12:18:08;;;;;;;0.30;0.30;;;;;;;;;;5049836;28;20205;-66
2023/12/24 12:20:35;;;;;;;0.20;0.20;;;;;;;;;;5050563;28;20887;-66
2023/12/24 12:23:02;;;;;;;0.60;0.30;;;;;;;;;;5050802;28;20205;-66
2023/12/24 12:25:28;;;;;;;0.30;0.30;;;;;;;;;;5050198;28;20634;-66
2023/12/24 12:27:55;;;;;;;0.20;0.20;;;;;;;;;;5050161;28;20213;-66
2023/12/24 12:30:22;;;;;;;0.20;0.20;;;;;;;;;;5050725;28;20212;-66
2023/12/24 12:32:49;;;;;;;0.20;0.20;;;;;;;;;;5050639;28;20225;-66
2023/12/24 12:35:15;;;;;;;0.13;0.13;;;;;;;;;;5050138;28;20643;-66
2023/12/24 12:37:42;;;;;;;0.15;0.15;;;;;;;;;;5050361;28;20204;-66
2023/12/24 12:40:09;;;;;;;0.15;0.15;;;;;;;;;;5050277;28;20527;-66
2023/12/24 12:42:35;;;;;;;0.20;0.20;;;;;;;;;;5050208;28;20689;-66
2023/12/24 12:45:02;;;;;;;0.20;0.20;;;;;;;;;;5050229;28;20278;-68
2023/12/24 12:47:28;;;;;;;0.20;0.20;;;;;;;;;;5050084;28;20725;-62
2023/12/24 12:49:56;;;;;;;0.10;0.10;;;;;;;;;;5049762;28;20700;-62
2023/12/24 12:52:22;;;;;;;0.20;0.20;;;;;;;;;;5050124;28;20259;-64
2023/12/24 12:54:48;;;;;;;0.40;0.40;;;;;;;;;;5048436;28;20216;-62
2023/12/24 12:57:27;;;;;;;0.28;0.28;;;;;;;;;;5047539;28;20213;-62
2023/12/24 13:00:00;;;;;;;0.30;0.30;;;;;;;;;;5047779;28;20213;-62
2023/12/24 13:02:26;;;;;;;0.40;0.40;;;;;;;;;;5047673;28;20208;-61
2023/12/24 13:04:52;;;;;;;0.30;0.30;;;;;;;;;;5047120;28;20771;-62
2023/12/24 13:07:20;;;;;;;0.40;0.40;;;;;;;;;;5047434;28;20217;-62
2023/12/24 13:09:47;;;;;;;0.95;0.50;;;;;;;;;;5047364;28;20689;-62
2023/12/24 13:12:18;;;;;;;0.40;0.40;;;;;;;;;;5047726;28;20228;-62
2023/12/24 13:14:49;;;;;;;0.40;0.40;;;;;;;;;;5047198;28;20213;-62
2023/12/24 13:17:22;;;;;;;0.30;0.30;;;;;;;;;;5047195;28;20685;-62
2023/12/24 13:19:48;;;;;;;0.25;0.25;;;;;;;;;;5047433;28;20500;-62
2023/12/24 13:22:14;;;;;;;0.30;0.30;;;;;;;;;;5047239;28;20213;-62
2023/12/24 13:24:42;;;;;;;0.43;0.40;;;;;;;;;;5046811;28;20213;-62
2023/12/24 13:27:09;;;;;;;1.67;0.85;;;;;;;;;;5047142;28;20207;-62
2023/12/24 13:29:35;;;;;;;0.20;0.20;;;;;;;;;;5047055;28;20240;-63
2023/12/24 13:32:01;;;;;;;0.50;0.50;;;;;;;;;;5046513;28;20610;-64
2023/12/24 13:34:28;;;;;;;0.45;0.45;;;;;;;;;;5046637;28;20213;-63
2023/12/24 13:36:54;;;;;;;0.47;0.30;;;;;;;;;;5046646;28;20225;-63
2023/12/24 13:39:20;;;;;;;0.40;0.40;;;;;;;;;;5046614;28;20216;-63
2023/12/24 13:41:48;;;;;;;0.50;0.50;;;;;;;;;;5046636;28;20209;-63
2023/12/24 13:44:14;;;;;;;0.30;0.30;;;;;;;;;;5046355;28;20264;-62
2023/12/24 13:46:40;;;;;;;0.30;0.30;;;;;;;;;;5046553;28;20312;-64
2023/12/24 13:49:07;;;;;;;0.40;0.40;;;;;;;;;;5046124;28;20209;-62
2023/12/24 13:51:33;;;;;;;0.30;0.30;;;;;;;;;;5045935;28;20758;-62
2023/12/24 13:54:00;;;;;;;0.32;0.32;;;;;;;;;;5046344;28;20224;-63
2023/12/24 13:56:26;;;;;;;0.20;0.20;;;;;;;;;;5046482;28;20290;-62
2023/12/24 13:58:54;;;;;;;0.20;0.20;;;;;;;;;;5046284;28;20233;-62
2023/12/24 14:01:20;;;;;;;0.45;0.45;;;;;;;;;;5046453;28;20294;-62
2023/12/24 14:03:46;;;;;;;0.40;0.40;;;;;;;;;;5046127;28;20205;-62
2023/12/24 14:06:12;;;;;;;1.65;0.50;;;;;;;;;;5046136;28;20224;-62
2023/12/24 14:08:39;;;;;;;0.40;0.40;;;;;;;;;;5046433;28;20212;-62
2023/12/24 14:11:05;;;;;;;0.60;0.60;;;;;;;;;;5046164;28;20220;-62
2023/12/24 14:13:32;;;;;;;0.52;0.40;;;;;;;;;;5046031;28;20228;-62
2023/12/24 14:16:00;;;;;;;1.48;0.50;;;;;;;;;;5045903;28;20232;-63
2023/12/24 14:18:26;;;;;;;1.50;0.38;;;;;;;;;;5045989;28;20223;-62
2023/12/24 14:20:52;;;;;;;0.35;0.35;;;;;;;;;;5045539;28;20259;-62
2023/12/24 14:23:19;;;;;;;0.57;0.50;;;;;;;;;;5045823;28;20208;-62
2023/12/24 14:25:45;;;;;;;0.65;0.40;;;;;;;;;;5046100;28;20229;-62
2023/12/24 14:28:11;;;;;;;0.32;0.22;;;;;;;;;;5038136;28;20304;-63
2023/12/24 14:30:38;;;;;;;0.50;0.50;;;;;;;;;;5046053;28;20213;-62
2023/12/24 14:33:05;;;;;;;0.88;0.30;;;;;;;;;;5045479;28;20259;-64
2023/12/24 14:35:32;;;;;;;0.40;0.40;;;;;;;;;;5045529;28;20283;-62
2023/12/24 14:37:58;;;;;;;0.20;0.20;;;;;;;;;;5045400;28;20216;-62
2023/12/24 14:40:24;;;;;;;0.40;0.40;;;;;;;;;;5045361;28;20208;-62
2023/12/24 14:42:51;;;;;;;0.22;0.22;;;;;;;;;;5045723;28;20749;-62